createdAt,value
2023-12-30T00:00:18.592Z,99473.88
2023-12-30T00:01:13.298Z,99464.74
2023-12-30T00:02:11.084Z,99461.15
2023-12-30T00:03:11.145Z,99465.26
2023-12-30T00:04:11.119Z,99465.76
2023-12-30T00:05:11.099Z,99465.27
2023-12-30T00:06:11.170Z,99472.02
2023-12-30T00:07:11.096Z,99471.84
2023-12-30T00:08:11.073Z,99465.94
2023-12-30T00:09:11.114Z,99461.66
2023-12-30T00:10:11.180Z,99467.94
2023-12-30T00:11:11.073Z,99463.51
2023-12-30T00:12:11.127Z,99463.16
2023-12-30T00:13:11.115Z,99457.89
2023-12-30T00:14:11.082Z,99466.02
2023-12-30T00:15:11.090Z,99456.90
2023-12-30T00:16:11.091Z,99461.01
2023-12-30T00:17:11.089Z,99457.27
2023-12-30T00:18:11.121Z,99455.18
2023-12-30T00:19:11.210Z,99459.01
2023-12-30T00:20:11.084Z,99448.82
2023-12-30T00:21:11.086Z,99454.46
2023-12-30T00:22:11.135Z,99456.66
2023-12-30T00:23:11.090Z,99459.17
2023-12-30T00:24:11.081Z,99461.11
2023-12-30T00:25:11.095Z,99462.60
2023-12-30T00:26:15.098Z,99468.30
2023-12-30T00:27:11.078Z,99467.06
2023-12-30T00:28:11.131Z,99464.22
2023-12-30T00:29:11.080Z,99463.83
2023-12-30T00:30:11.124Z,99465.88
2023-12-30T00:31:15.083Z,99462.08
2023-12-30T00:32:11.063Z,99464.66
2023-12-30T00:33:11.191Z,99466.45
2023-12-30T00:34:11.325Z,99462.13
2023-12-30T00:35:11.060Z,99447.91
2023-12-30T00:36:11.089Z,99453.43
2023-12-30T00:37:11.146Z,99459.01
2023-12-30T00:38:11.064Z,99458.80
2023-12-30T00:39:11.066Z,99458.68
2023-12-30T00:40:11.103Z,99455.78
2023-12-30T00:41:12.303Z,99458.18
2023-12-30T00:42:11.072Z,99459.38
2023-12-30T00:43:11.099Z,99458.95
2023-12-30T00:44:11.078Z,99456.45
2023-12-30T00:45:11.088Z,99459.86
2023-12-30T00:46:11.151Z,99460.57
2023-12-30T00:47:11.070Z,99461.09
2023-12-30T00:48:11.122Z,99456.23
2023-12-30T00:49:11.348Z,99459.34
2023-12-30T00:50:11.074Z,99458.57
2023-12-30T00:51:11.078Z,99466.85
2023-12-30T00:52:11.101Z,99468.46
2023-12-30T00:53:11.075Z,99466.68
2023-12-30T00:54:11.065Z,99469.56
2023-12-30T00:55:11.078Z,99468.04
2023-12-30T00:56:11.066Z,99467.50
2023-12-30T00:57:11.078Z,99473.56
2023-12-30T00:58:11.117Z,99468.23
2023-12-30T00:59:11.068Z,99477.89
2023-12-30T01:00:11.069Z,99476.16
2023-12-30T01:01:11.157Z,99477.55
2023-12-30T01:02:11.074Z,99475.77
2023-12-30T01:03:11.103Z,99478.85
2023-12-30T01:04:11.121Z,99480.45
2023-12-30T01:05:11.179Z,99485.66
2023-12-30T01:06:11.065Z,99484.29
2023-12-30T01:07:11.140Z,99479.70
2023-12-30T01:08:11.122Z,99482.86
2023-12-30T01:09:11.078Z,99487.23
2023-12-30T01:10:11.109Z,99488.04
2023-12-30T01:11:11.068Z,99490.02
2023-12-30T01:12:11.071Z,99486.63
2023-12-30T01:13:13.074Z,99490.11
2023-12-30T01:14:11.066Z,99496.15
2023-12-30T01:15:11.070Z,99499.33
2023-12-30T01:16:11.095Z,99496.70
2023-12-30T01:17:11.068Z,99504.93
2023-12-30T01:18:11.097Z,99501.65
2023-12-30T01:19:11.224Z,99500.58
2023-12-30T01:20:12.237Z,99499.70
2023-12-30T01:21:11.063Z,99497.43
2023-12-30T01:22:11.081Z,99498.10
2023-12-30T01:23:11.070Z,99499.56
2023-12-30T01:24:11.071Z,99500.03
2023-12-30T01:25:11.200Z,99501.70
2023-12-30T01:26:11.069Z,99506.23
2023-12-30T01:27:11.124Z,99507.41
2023-12-30T01:28:11.204Z,99505.94
2023-12-30T01:29:11.104Z,99507.86
2023-12-30T01:30:11.105Z,99507.98
2023-12-30T01:31:11.136Z,99507.27
2023-12-30T01:32:11.074Z,99509.30
2023-12-30T01:33:11.117Z,99507.12
2023-12-30T01:34:11.174Z,99506.91
2023-12-30T01:35:11.094Z,99510.81
2023-12-30T01:36:11.067Z,99510.42
2023-12-30T01:37:11.097Z,99508.02
2023-12-30T01:38:11.079Z,99504.09
2023-12-30T01:39:11.074Z,99504.80
2023-12-30T01:40:11.121Z,99503.97
2023-12-30T01:41:11.076Z,99504.85
2023-12-30T01:42:11.067Z,99502.93
2023-12-30T01:43:19.164Z,99504.35
2023-12-30T01:44:11.076Z,99502.35
2023-12-30T01:45:11.077Z,99502.32
2023-12-30T01:46:12.126Z,99501.55
2023-12-30T01:47:11.070Z,99501.55
2023-12-30T01:48:11.170Z,99501.70
2023-12-30T01:49:11.136Z,99499.56
2023-12-30T01:50:11.076Z,99492.41
2023-12-30T01:51:24.229Z,99493.65
2023-12-30T01:52:13.227Z,99488.46
2023-12-30T01:53:11.120Z,99489.18
2023-12-30T01:54:11.079Z,99490.63
2023-12-30T01:55:11.082Z,99486.65
2023-12-30T01:56:11.081Z,99487.75
2023-12-30T01:57:11.078Z,99486.62
2023-12-30T01:58:11.107Z,99485.61
2023-12-30T01:59:11.078Z,99489.64
2023-12-30T02:00:11.080Z,99486.76
2023-12-30T02:01:11.171Z,99487.31
2023-12-30T02:02:11.107Z,99485.62
2023-12-30T02:03:11.105Z,99489.77
2023-12-30T02:04:11.105Z,99485.88
2023-12-30T02:05:12.402Z,99489.93
2023-12-30T02:06:11.075Z,99490.01
2023-12-30T02:07:11.104Z,99492.41
2023-12-30T02:08:11.157Z,99490.46
2023-12-30T02:09:11.080Z,99488.39
2023-12-30T02:10:11.175Z,99493.65
2023-12-30T02:11:11.107Z,99489.88
2023-12-30T02:12:11.080Z,99490.30
2023-12-30T02:13:11.123Z,99489.18
2023-12-30T02:14:19.077Z,99487.83
2023-12-30T02:15:15.105Z,99489.41
2023-12-30T02:16:11.114Z,99490.11
2023-12-30T02:17:11.076Z,99485.22
2023-12-30T02:18:11.201Z,99486.14
2023-12-30T02:19:11.149Z,99490.74
2023-12-30T02:20:11.080Z,99488.82
2023-12-30T02:21:11.097Z,99485.72
2023-12-30T02:22:11.158Z,99488.66
2023-12-30T02:23:11.079Z,99494.08
2023-12-30T02:24:11.082Z,99487.07
2023-12-30T02:25:11.121Z,99496.46
2023-12-30T02:26:11.070Z,99495.82
2023-12-30T02:27:11.084Z,99496.03
2023-12-30T02:28:11.135Z,99494.72
2023-12-30T02:29:11.099Z,99492.20
2023-12-30T02:30:11.189Z,99491.68
2023-12-30T02:31:11.145Z,99496.63
2023-12-30T02:32:11.073Z,99501.50
2023-12-30T02:33:11.191Z,99496.12
2023-12-30T02:34:11.189Z,99493.80
2023-12-30T02:35:11.101Z,99495.27
2023-12-30T02:36:11.132Z,99492.81
2023-12-30T02:37:11.092Z,99495.95
2023-12-30T02:38:11.088Z,99496.92
2023-12-30T02:39:11.097Z,99498.64
2023-12-30T02:40:11.187Z,99501.47
2023-12-30T02:41:11.079Z,99495.27
2023-12-30T02:42:11.089Z,99498.08
2023-12-30T02:43:11.091Z,99495.43
2023-12-30T02:44:11.078Z,99497.36
2023-12-30T02:45:11.083Z,99498.03
2023-12-30T02:46:11.089Z,99505.06
2023-12-30T02:47:11.080Z,99498.81
2023-12-30T02:48:11.172Z,99498.09
2023-12-30T02:49:11.125Z,99490.27
2023-12-30T02:50:11.075Z,99489.41
2023-12-30T02:51:14.081Z,99484.98
2023-12-30T02:52:11.107Z,99487.08
2023-12-30T02:53:11.089Z,99482.28
2023-12-30T02:54:11.084Z,99484.36
2023-12-30T02:55:11.251Z,99486.19
2023-12-30T02:56:19.071Z,99484.40
2023-12-30T02:57:11.076Z,99485.13
2023-12-30T02:58:11.143Z,99484.66
2023-12-30T02:59:11.081Z,99487.89
2023-12-30T03:00:11.077Z,99493.20
2023-12-30T03:01:11.114Z,99496.41
2023-12-30T03:02:11.120Z,99492.25
2023-12-30T03:03:11.090Z,99490.55
2023-12-30T03:04:11.241Z,99489.18
2023-12-30T03:05:11.215Z,99484.39
2023-12-30T03:06:13.122Z,99478.80
2023-12-30T03:07:11.113Z,99479.92
2023-12-30T03:08:11.067Z,99478.90
2023-12-30T03:09:11.070Z,99479.68
2023-12-30T03:10:11.343Z,99476.34
2023-12-30T03:11:11.337Z,99475.97
2023-12-30T03:12:11.083Z,99474.66
2023-12-30T03:13:11.152Z,99476.25
2023-12-30T03:14:11.078Z,99475.25
2023-12-30T03:15:11.120Z,99477.55
2023-12-30T03:16:11.092Z,99471.31
2023-12-30T03:17:11.089Z,99469.80
2023-12-30T03:18:11.154Z,99469.32
2023-12-30T03:19:11.293Z,99472.02
2023-12-30T03:20:14.077Z,99478.89
2023-12-30T03:21:13.083Z,99483.99
2023-12-30T03:22:11.109Z,99488.21
2023-12-30T03:23:11.070Z,99490.36
2023-12-30T03:24:11.078Z,99489.84
2023-12-30T03:25:11.167Z,99492.19
2023-12-30T03:26:11.079Z,99491.21
2023-12-30T03:27:11.125Z,99488.90
2023-12-30T03:28:11.109Z,99487.13
2023-12-30T03:29:11.087Z,99486.07
2023-12-30T03:30:11.108Z,99485.94
2023-12-30T03:31:16.097Z,99485.89
2023-12-30T03:32:11.080Z,99483.70
2023-12-30T03:33:11.146Z,99483.96
2023-12-30T03:34:11.293Z,99484.55
2023-12-30T03:35:11.068Z,99483.02
2023-12-30T03:36:11.070Z,99479.22
2023-12-30T03:37:11.095Z,99482.59
2023-12-30T03:38:11.066Z,99486.52
2023-12-30T03:39:11.063Z,99484.41
2023-12-30T03:40:11.078Z,99484.88
2023-12-30T03:41:11.080Z,99485.68
2023-12-30T03:42:11.061Z,99483.27
2023-12-30T03:43:11.111Z,99485.53
2023-12-30T03:44:11.091Z,99484.61
2023-12-30T03:45:11.063Z,99481.31
2023-12-30T03:46:11.155Z,99475.71
2023-12-30T03:47:11.066Z,99477.14
2023-12-30T03:48:11.255Z,99474.90
2023-12-30T03:49:11.184Z,99477.82
2023-12-30T03:50:11.104Z,99479.88
2023-12-30T03:51:11.074Z,99482.00
2023-12-30T03:52:11.092Z,99481.93
2023-12-30T03:53:11.064Z,99479.07
2023-12-30T03:54:11.063Z,99479.82
2023-12-30T03:55:11.076Z,99476.31
2023-12-30T03:56:11.068Z,99474.11
2023-12-30T03:57:11.066Z,99472.13
2023-12-30T03:58:11.072Z,99470.51
2023-12-30T03:59:11.061Z,99473.87
2023-12-30T04:00:11.074Z,99470.83
2023-12-30T04:01:11.152Z,99468.45
2023-12-30T04:02:11.080Z,99465.27
2023-12-30T04:03:11.120Z,99461.27
2023-12-30T04:04:11.144Z,99458.77
2023-12-30T04:05:11.080Z,99456.26
2023-12-30T04:06:17.073Z,99456.62
2023-12-30T04:07:11.095Z,99459.27
2023-12-30T04:08:11.071Z,99460.32
2023-12-30T04:09:11.067Z,99463.27
2023-12-30T04:10:11.076Z,99464.92
2023-12-30T04:11:11.098Z,99463.16
2023-12-30T04:12:11.066Z,99457.60
2023-12-30T04:13:11.363Z,99451.06
2023-12-30T04:14:11.072Z,99447.67
2023-12-30T04:15:11.067Z,99437.14
2023-12-30T04:16:11.100Z,99436.75
2023-12-30T04:17:11.069Z,99438.01
2023-12-30T04:18:11.179Z,99436.50
2023-12-30T04:19:11.172Z,99436.29
2023-12-30T04:20:11.068Z,99436.42
2023-12-30T04:21:11.075Z,99433.27
2023-12-30T04:22:11.085Z,99430.43
2023-12-30T04:23:11.072Z,99430.88
2023-12-30T04:24:11.073Z,99434.95
2023-12-30T04:25:11.119Z,99431.58
2023-12-30T04:26:11.069Z,99427.00
2023-12-30T04:27:11.098Z,99420.52
2023-12-30T04:28:11.109Z,99418.53
2023-12-30T04:29:11.062Z,99416.19
2023-12-30T04:30:11.116Z,99414.05
2023-12-30T04:31:11.153Z,99416.78
2023-12-30T04:32:11.069Z,99420.14
2023-12-30T04:33:11.145Z,99414.77
2023-12-30T04:34:11.247Z,99415.44
2023-12-30T04:35:11.071Z,99417.01
2023-12-30T04:36:11.070Z,99418.09
2023-12-30T04:37:11.139Z,99416.46
2023-12-30T04:38:11.073Z,99412.71
2023-12-30T04:39:11.074Z,99412.51
2023-12-30T04:40:11.123Z,99408.66
2023-12-30T04:41:11.065Z,99408.00
2023-12-30T04:42:11.081Z,99408.13
2023-12-30T04:43:11.095Z,99410.17
2023-12-30T04:44:11.098Z,99409.89
2023-12-30T04:45:11.077Z,99409.54
2023-12-30T04:46:11.085Z,99405.74
2023-12-30T04:47:11.071Z,99407.36
2023-12-30T04:48:11.148Z,99403.50
2023-12-30T04:49:11.145Z,99403.05
2023-12-30T04:50:11.104Z,99395.92
2023-12-30T04:51:11.101Z,99400.42
2023-12-30T04:52:11.096Z,99398.91
2023-12-30T04:53:11.066Z,99394.68
2023-12-30T04:54:11.080Z,99390.58
2023-12-30T04:55:11.081Z,99390.85
2023-12-30T04:56:14.071Z,99391.91
2023-12-30T04:57:11.092Z,99388.51
2023-12-30T04:58:11.151Z,99393.01
2023-12-30T04:59:11.076Z,99388.24
2023-12-30T05:00:11.077Z,99384.86
2023-12-30T05:01:11.189Z,99384.65
2023-12-30T05:02:11.065Z,99381.17
2023-12-30T05:03:11.122Z,99381.54
2023-12-30T05:04:11.100Z,99385.31
2023-12-30T05:05:11.115Z,99382.64
2023-12-30T05:06:15.097Z,99376.46
2023-12-30T05:07:11.120Z,99375.70
2023-12-30T05:08:11.083Z,99378.11
2023-12-30T05:09:11.104Z,99376.16
2023-12-30T05:10:11.176Z,99372.46
2023-12-30T05:11:11.066Z,99373.64
2023-12-30T05:12:11.095Z,99369.73
2023-12-30T05:13:11.149Z,99362.77
2023-12-30T05:14:11.158Z,99361.60
2023-12-30T05:15:11.072Z,99359.19
2023-12-30T05:16:11.095Z,99360.80
2023-12-30T05:17:11.066Z,99361.90
2023-12-30T05:18:11.220Z,99357.80
2023-12-30T05:19:11.222Z,99360.87
2023-12-30T05:20:12.078Z,99356.00
2023-12-30T05:21:15.073Z,99353.11
2023-12-30T05:22:11.078Z,99352.35
2023-12-30T05:23:11.094Z,99360.26
2023-12-30T05:24:11.070Z,99367.14
2023-12-30T05:25:11.114Z,99362.99
2023-12-30T05:26:11.073Z,99363.88
2023-12-30T05:27:11.074Z,99362.95
2023-12-30T05:28:11.158Z,99361.26
2023-12-30T05:29:11.068Z,99362.02
2023-12-30T05:30:11.250Z,99362.61
2023-12-30T05:31:11.370Z,99357.18
2023-12-30T05:32:11.086Z,99357.30
2023-12-30T05:33:11.143Z,99357.57
2023-12-30T05:34:11.165Z,99355.77
2023-12-30T05:35:11.121Z,99354.25
2023-12-30T05:36:11.080Z,99354.51
2023-12-30T05:37:11.228Z,99354.73
2023-12-30T05:38:11.071Z,99355.09
2023-12-30T05:39:11.077Z,99351.72
2023-12-30T05:40:13.167Z,99350.66
2023-12-30T05:41:11.088Z,99346.74
2023-12-30T05:42:11.070Z,99343.85
2023-12-30T05:43:11.134Z,99340.03
2023-12-30T05:44:11.071Z,99339.23
2023-12-30T05:45:11.070Z,99339.83
2023-12-30T05:46:14.093Z,99340.04
2023-12-30T05:47:11.080Z,99339.48
2023-12-30T05:48:11.211Z,99345.55
2023-12-30T05:49:11.132Z,99343.89
2023-12-30T05:50:12.073Z,99340.81
2023-12-30T05:51:11.073Z,99339.82
2023-12-30T05:52:11.112Z,99343.07
2023-12-30T05:53:11.079Z,99347.38
2023-12-30T05:54:11.069Z,99345.88
2023-12-30T05:55:11.101Z,99344.33
2023-12-30T05:56:11.159Z,99344.54
2023-12-30T05:57:11.081Z,99344.96
2023-12-30T05:58:11.107Z,99346.12
2023-12-30T05:59:11.075Z,99342.86
2023-12-30T06:00:12.077Z,99343.54
2023-12-30T06:01:11.189Z,99339.87
2023-12-30T06:02:11.104Z,99334.06
2023-12-30T06:03:11.154Z,99326.87
2023-12-30T06:04:11.117Z,99328.15
2023-12-30T06:05:11.077Z,99322.46
2023-12-30T06:06:11.220Z,99316.20
2023-12-30T06:07:11.131Z,99314.47
2023-12-30T06:08:11.070Z,99311.75
2023-12-30T06:09:11.078Z,99304.39
2023-12-30T06:10:11.105Z,99296.36
2023-12-30T06:11:11.069Z,99296.09
2023-12-30T06:12:11.078Z,99289.84
2023-12-30T06:13:11.167Z,99292.52
2023-12-30T06:14:11.073Z,99297.10
2023-12-30T06:15:11.112Z,99293.92
2023-12-30T06:16:13.092Z,99293.09
2023-12-30T06:17:11.072Z,99290.88
2023-12-30T06:18:11.153Z,99287.71
2023-12-30T06:19:12.914Z,99290.00
2023-12-30T06:20:12.082Z,99290.06
2023-12-30T06:21:11.086Z,99284.51
2023-12-30T06:22:11.115Z,99286.14
2023-12-30T06:23:11.068Z,99284.25
2023-12-30T06:24:11.076Z,99284.92
2023-12-30T06:25:11.192Z,99286.83
2023-12-30T06:26:11.071Z,99285.59
2023-12-30T06:27:11.070Z,99282.67
2023-12-30T06:28:11.144Z,99282.40
2023-12-30T06:29:12.100Z,99283.83
2023-12-30T06:30:11.101Z,99280.58
2023-12-30T06:31:11.130Z,99281.63
2023-12-30T06:32:11.116Z,99277.30
2023-12-30T06:33:11.151Z,99272.88
2023-12-30T06:34:11.208Z,99270.71
2023-12-30T06:35:11.068Z,99270.25
2023-12-30T06:36:11.060Z,99264.49
2023-12-30T06:37:11.098Z,99267.91
2023-12-30T06:38:11.065Z,99260.98
2023-12-30T06:39:11.061Z,99260.43
2023-12-30T06:40:11.156Z,99267.75
2023-12-30T06:41:11.060Z,99264.16
2023-12-30T06:42:11.075Z,99260.06
2023-12-30T06:43:11.121Z,99259.26
2023-12-30T06:44:11.063Z,99254.82
2023-12-30T06:45:11.067Z,99258.02
2023-12-30T06:46:11.123Z,99259.35
2023-12-30T06:47:11.086Z,99252.80
2023-12-30T06:48:11.156Z,99252.46
2023-12-30T06:49:11.309Z,99249.86
2023-12-30T06:50:11.059Z,99250.09
2023-12-30T06:51:13.067Z,99247.57
2023-12-30T06:52:11.102Z,99245.89
2023-12-30T06:53:11.063Z,99240.62
2023-12-30T06:54:11.062Z,99245.84
2023-12-30T06:55:18.774Z,99251.07
2023-12-30T06:56:13.150Z,99255.09
2023-12-30T06:57:11.058Z,99256.84
2023-12-30T06:58:11.096Z,99250.17
2023-12-30T06:59:12.895Z,99249.83
2023-12-30T07:00:11.107Z,99250.07
2023-12-30T07:01:11.119Z,99245.58
2023-12-30T07:02:11.097Z,99246.66
2023-12-30T07:03:11.085Z,99246.72
2023-12-30T07:04:11.139Z,99247.80
2023-12-30T07:05:11.178Z,99245.33
2023-12-30T07:06:11.061Z,99243.39
2023-12-30T07:07:11.084Z,99246.16
2023-12-30T07:08:11.099Z,99241.44
2023-12-30T07:09:11.094Z,99241.82
2023-12-30T07:10:11.132Z,99237.31
2023-12-30T07:11:11.100Z,99235.04
2023-12-30T07:12:11.066Z,99230.62
2023-12-30T07:13:11.097Z,99228.74
2023-12-30T07:14:11.064Z,99224.78
2023-12-30T07:15:11.159Z,99218.25
2023-12-30T07:16:11.092Z,99223.37
2023-12-30T07:17:11.068Z,99221.54
2023-12-30T07:18:11.153Z,99214.21
2023-12-30T07:19:11.427Z,99206.63
2023-12-30T07:20:11.067Z,99203.42
2023-12-30T07:21:11.074Z,99204.84
2023-12-30T07:22:11.096Z,99207.88
2023-12-30T07:23:11.065Z,99200.46
2023-12-30T07:24:11.073Z,99199.48
2023-12-30T07:25:11.125Z,99198.12
2023-12-30T07:26:11.069Z,99188.42
2023-12-30T07:27:11.070Z,99188.92
2023-12-30T07:28:11.118Z,99188.31
2023-12-30T07:29:11.066Z,99185.68
2023-12-30T07:30:11.205Z,99184.91
2023-12-30T07:31:11.169Z,99185.21
2023-12-30T07:32:11.067Z,99180.45
2023-12-30T07:33:11.170Z,99179.04
2023-12-30T07:34:11.163Z,99174.87
2023-12-30T07:35:11.064Z,99170.09
2023-12-30T07:36:11.075Z,99170.55
2023-12-30T07:37:11.097Z,99165.97
2023-12-30T07:38:11.080Z,99164.72
2023-12-30T07:39:11.097Z,99163.59
2023-12-30T07:40:11.121Z,99164.13
2023-12-30T07:41:11.073Z,99163.86
2023-12-30T07:42:11.066Z,99166.52
2023-12-30T07:43:11.128Z,99160.02
2023-12-30T07:44:11.062Z,99161.86
2023-12-30T07:45:11.069Z,99160.68
2023-12-30T07:46:11.110Z,99159.74
2023-12-30T07:47:11.068Z,99160.26
2023-12-30T07:48:11.248Z,99159.07
2023-12-30T07:49:11.136Z,99159.77
2023-12-30T07:50:11.115Z,99155.60
2023-12-30T07:51:11.068Z,99152.32
2023-12-30T07:52:11.086Z,99151.51
2023-12-30T07:53:11.071Z,99141.95
2023-12-30T07:54:11.065Z,99142.02
2023-12-30T07:55:11.112Z,99144.56
2023-12-30T07:56:11.065Z,99147.02
2023-12-30T07:57:11.072Z,99144.93
2023-12-30T07:58:11.098Z,99144.39
2023-12-30T07:59:11.086Z,99140.12
2023-12-30T08:00:11.102Z,99142.89
2023-12-30T08:01:11.165Z,99143.61
2023-12-30T08:02:11.066Z,99140.29
2023-12-30T08:03:11.102Z,99137.50
2023-12-30T08:04:11.165Z,99140.64
2023-12-30T08:05:11.153Z,99137.94
2023-12-30T08:06:11.073Z,99135.90
2023-12-30T08:07:11.094Z,99137.19
2023-12-30T08:08:11.078Z,99132.45
2023-12-30T08:09:11.069Z,99127.23
2023-12-30T08:10:11.114Z,99123.22
2023-12-30T08:11:11.082Z,99124.14
2023-12-30T08:12:11.089Z,99119.93
2023-12-30T08:13:11.100Z,99119.17
2023-12-30T08:14:11.072Z,99116.95
2023-12-30T08:15:11.130Z,99113.71
2023-12-30T08:16:11.125Z,99115.45
2023-12-30T08:17:11.109Z,99115.84
2023-12-30T08:18:11.162Z,99112.56
2023-12-30T08:19:11.075Z,99108.50
2023-12-30T08:20:11.066Z,99105.18
2023-12-30T08:21:11.070Z,99102.14
2023-12-30T08:22:11.088Z,99102.53
2023-12-30T08:23:11.082Z,99101.22
2023-12-30T08:24:12.066Z,99096.50
2023-12-30T08:25:11.093Z,99099.00
2023-12-30T08:26:11.075Z,99095.52
2023-12-30T08:27:11.066Z,99093.41
2023-12-30T08:28:11.112Z,99096.03
2023-12-30T08:29:13.079Z,99093.05
2023-12-30T08:30:11.098Z,99090.92
2023-12-30T08:31:11.164Z,99089.85
2023-12-30T08:32:11.070Z,99091.90
2023-12-30T08:33:12.172Z,99093.75
2023-12-30T08:34:11.122Z,99094.41
2023-12-30T08:35:12.073Z,99090.93
2023-12-30T08:36:11.096Z,99090.33
2023-12-30T08:37:14.118Z,99095.06
2023-12-30T08:38:11.071Z,99087.45
2023-12-30T08:39:11.080Z,99094.75
2023-12-30T08:40:15.113Z,99089.75
2023-12-30T08:41:16.130Z,99089.59
2023-12-30T08:42:11.085Z,99091.18
2023-12-30T08:43:11.101Z,99091.73
2023-12-30T08:44:11.130Z,99083.25
2023-12-30T08:45:11.099Z,99088.45
2023-12-30T08:46:11.185Z,99082.38
2023-12-30T08:47:11.211Z,99078.42
2023-12-30T08:48:11.146Z,99086.30
2023-12-30T08:49:11.409Z,99079.56
2023-12-30T08:50:11.114Z,99078.87
2023-12-30T08:51:12.076Z,99077.46
2023-12-30T08:52:11.105Z,99072.84
2023-12-30T08:53:11.075Z,99072.28
2023-12-30T08:54:11.071Z,99071.33
2023-12-30T08:55:14.149Z,99071.81
2023-12-30T08:56:11.077Z,99071.80
2023-12-30T08:57:11.074Z,99068.72
2023-12-30T08:58:11.097Z,99064.27
2023-12-30T08:59:11.089Z,99058.79
2023-12-30T09:00:13.072Z,99056.07
2023-12-30T09:01:11.160Z,99058.46
2023-12-30T09:02:11.090Z,99053.36
2023-12-30T09:03:11.084Z,99048.57
2023-12-30T09:04:11.186Z,99047.44
2023-12-30T09:05:11.084Z,99043.41
2023-12-30T09:06:11.181Z,99037.62
2023-12-30T09:07:11.114Z,99032.06
2023-12-30T09:08:11.085Z,99025.38
2023-12-30T09:09:11.076Z,99019.30
2023-12-30T09:10:11.097Z,99012.24
2023-12-30T09:11:19.093Z,99005.55
2023-12-30T09:12:11.083Z,98998.23
2023-12-30T09:13:11.103Z,98990.69
2023-12-30T09:14:11.075Z,98991.97
2023-12-30T09:15:11.087Z,98994.68
2023-12-30T09:16:11.094Z,98988.87
2023-12-30T09:17:11.089Z,98982.36
2023-12-30T09:18:14.997Z,98982.34
2023-12-30T09:19:11.211Z,98978.75
2023-12-30T09:20:11.189Z,98979.79
2023-12-30T09:21:11.076Z,98976.64
2023-12-30T09:22:12.152Z,98980.93
2023-12-30T09:23:11.085Z,98980.06
2023-12-30T09:24:11.093Z,98973.64
2023-12-30T09:25:11.165Z,98973.20
2023-12-30T09:26:11.079Z,98974.31
2023-12-30T09:27:11.089Z,98973.33
2023-12-30T09:28:11.123Z,98974.82
2023-12-30T09:29:11.080Z,98978.59
2023-12-30T09:30:11.150Z,98971.03
2023-12-30T09:31:11.153Z,98971.52
2023-12-30T09:32:11.068Z,98965.93
2023-12-30T09:33:12.439Z,98966.57
2023-12-30T09:34:11.156Z,98963.31
2023-12-30T09:35:11.209Z,98955.92
2023-12-30T09:36:11.138Z,98963.95
2023-12-30T09:37:11.099Z,98961.45
2023-12-30T09:38:11.067Z,98957.81
2023-12-30T09:39:11.066Z,98955.62
2023-12-30T09:40:11.299Z,98956.07
2023-12-30T09:41:11.073Z,98952.97
2023-12-30T09:42:11.075Z,98948.72
2023-12-30T09:43:11.083Z,98944.98
2023-12-30T09:44:11.073Z,98940.27
2023-12-30T09:45:11.068Z,98939.82
2023-12-30T09:46:11.114Z,98942.38
2023-12-30T09:47:12.076Z,98948.14
2023-12-30T09:48:11.258Z,98949.35
2023-12-30T09:49:11.111Z,98950.86
2023-12-30T09:50:11.082Z,98944.54
2023-12-30T09:51:11.070Z,98941.49
2023-12-30T09:52:11.094Z,98937.63
2023-12-30T09:53:11.066Z,98939.03
2023-12-30T09:54:11.069Z,98937.65
2023-12-30T09:55:11.094Z,98940.86
2023-12-30T09:56:11.150Z,98937.91
2023-12-30T09:57:11.066Z,98930.70
2023-12-30T09:58:11.091Z,98924.80
2023-12-30T09:59:11.089Z,98922.99
2023-12-30T10:00:11.091Z,98923.24
2023-12-30T10:01:11.166Z,98916.07
2023-12-30T10:02:11.213Z,98913.89
2023-12-30T10:03:11.095Z,98907.86
2023-12-30T10:04:11.115Z,98905.41
2023-12-30T10:05:11.083Z,98904.47
2023-12-30T10:06:13.083Z,98904.92
2023-12-30T10:07:11.138Z,98908.29
2023-12-30T10:08:11.162Z,98900.14
2023-12-30T10:09:11.075Z,98904.33
2023-12-30T10:10:11.151Z,98900.61
2023-12-30T10:11:11.065Z,98898.05
2023-12-30T10:12:11.081Z,98899.80
2023-12-30T10:13:13.242Z,98896.97
2023-12-30T10:14:11.078Z,98895.21
2023-12-30T10:15:11.083Z,98895.80
2023-12-30T10:16:11.104Z,98896.60
2023-12-30T10:17:11.067Z,98894.86
2023-12-30T10:18:12.221Z,98892.82
2023-12-30T10:19:13.128Z,98889.35
2023-12-30T10:20:11.805Z,98886.17
2023-12-30T10:21:11.075Z,98885.76
2023-12-30T10:22:11.104Z,98888.10
2023-12-30T10:23:13.068Z,98888.04
2023-12-30T10:24:11.075Z,98893.37
2023-12-30T10:25:12.116Z,98895.66
2023-12-30T10:26:11.069Z,98889.40
2023-12-30T10:27:11.084Z,98889.27
2023-12-30T10:28:11.259Z,98878.20
2023-12-30T10:29:11.067Z,98875.62
2023-12-30T10:30:11.192Z,98873.06
2023-12-30T10:31:11.181Z,98875.73
2023-12-30T10:32:13.069Z,98877.61
2023-12-30T10:33:14.521Z,98873.40
2023-12-30T10:34:11.300Z,98883.85
2023-12-30T10:35:11.124Z,98886.62
2023-12-30T10:36:11.069Z,98883.61
2023-12-30T10:37:11.121Z,98888.28
2023-12-30T10:38:11.115Z,98880.91
2023-12-30T10:39:11.070Z,98883.45
2023-12-30T10:40:11.107Z,98883.36
2023-12-30T10:41:11.076Z,98878.66
2023-12-30T10:42:11.072Z,98874.77
2023-12-30T10:43:11.230Z,98874.19
2023-12-30T10:44:11.071Z,98868.02
2023-12-30T10:45:11.069Z,98866.89
2023-12-30T10:46:14.105Z,98866.29
2023-12-30T10:47:12.141Z,98862.10
2023-12-30T10:48:11.198Z,98866.29
2023-12-30T10:49:15.212Z,98855.26
2023-12-30T10:50:11.240Z,98875.35
2023-12-30T10:51:12.074Z,98870.21
2023-12-30T10:52:12.110Z,98866.53
2023-12-30T10:53:21.088Z,98862.49
2023-12-30T10:54:11.092Z,98857.56
2023-12-30T10:55:11.151Z,98862.32
2023-12-30T10:56:12.139Z,98853.95
2023-12-30T10:57:13.115Z,98847.27
2023-12-30T10:58:17.120Z,98848.59
2023-12-30T10:59:12.079Z,98852.27
2023-12-30T11:00:14.074Z,98855.61
2023-12-30T11:01:11.189Z,98852.28
2023-12-30T11:02:12.153Z,98853.50
2023-12-30T11:03:11.115Z,98850.74
2023-12-30T11:04:15.124Z,98848.25
2023-12-30T11:05:17.217Z,98853.97
2023-12-30T11:06:23.181Z,98842.38
2023-12-30T11:07:11.093Z,98842.60
2023-12-30T11:08:11.073Z,98828.82
2023-12-30T11:09:11.072Z,98835.41
2023-12-30T11:10:20.196Z,98836.99
2023-12-30T11:11:11.070Z,98832.84
2023-12-30T11:12:11.066Z,98831.41
2023-12-30T11:13:11.113Z,98830.11
2023-12-30T11:14:13.122Z,98831.37
2023-12-30T11:15:19.070Z,98824.85
2023-12-30T11:16:18.172Z,98820.45
2023-12-30T11:17:11.074Z,98815.23
2023-12-30T11:18:13.159Z,98811.32
2023-12-30T11:19:11.133Z,98806.35
2023-12-30T11:20:19.088Z,98807.61
2023-12-30T11:21:11.922Z,98814.21
2023-12-30T11:22:11.111Z,98806.31
2023-12-30T11:23:11.075Z,98808.45
2023-12-30T11:24:11.068Z,98803.10
2023-12-30T11:25:11.115Z,98800.49
2023-12-30T11:26:14.081Z,98802.09
2023-12-30T11:27:11.081Z,98793.91
2023-12-30T11:28:17.201Z,98788.23
2023-12-30T11:29:18.090Z,98783.82
2023-12-30T11:30:17.091Z,98774.40
2023-12-30T11:31:11.100Z,98770.74
2023-12-30T11:32:15.075Z,98768.73
2023-12-30T11:33:11.232Z,98768.30
2023-12-30T11:34:11.166Z,98761.11
2023-12-30T11:35:11.071Z,98763.98
2023-12-30T11:36:11.089Z,98763.38
2023-12-30T11:37:11.111Z,98754.40
2023-12-30T11:38:13.081Z,98752.47
2023-12-30T11:39:12.073Z,98749.47
2023-12-30T11:40:14.080Z,98741.81
2023-12-30T11:41:11.075Z,98740.15
2023-12-30T11:42:11.078Z,98742.84
2023-12-30T11:43:11.118Z,98741.02
2023-12-30T11:44:11.082Z,98735.63